Terminal Aerodrome Forecast
Issued by NWS

Home | Current Version | Previous Version | Text Only | Print | Product List | Glossary On
Versions: 1 2 3 4 5 6 7 8 9 10 11 12 13
000
FTUS41 KCAR 301414 AAA
TAFHUL
TAF AMD
KHUL 301414Z 3014/3112 25008KT P6SM BKN025
     FM301600 26008KT P6SM BKN045
     FM302000 26007KT P6SM SCT120=

USA.gov is the U.S. government's official web portal to all federal, state and local government web resources and services.